sensor_id;sensor_type;location;lat;lon;timestamp;temperature;humidity
16801;DHT22;8518;53.236;10.384;2022-10-16T00:01:18;13.70;99.90
16801;DHT22;8518;53.236;10.384;2022-10-16T00:03:44;13.70;99.90
16801;DHT22;8518;53.236;10.384;2022-10-16T00:06:11;13.80;99.90
16801;DHT22;8518;53.236;10.384;2022-10-16T00:08:37;13.80;99.90
16801;DHT22;8518;53.236;10.384;2022-10-16T00:11:06;13.70;99.90
16801;DHT22;8518;53.236;10.384;2022-10-16T00:13:33;13.70;99.90
16801;DHT22;8518;53.236;10.384;2022-10-16T00:15:59;13.70;99.90
16801;DHT22;8518;53.236;10.384;2022-10-16T00:18:26;13.70;99.90
16801;DHT22;8518;53.236;10.384;2022-10-16T00:20:52;13.60;99.90
16801;DHT22;8518;53.236;10.384;2022-10-16T00:23:18;13.60;99.90
16801;DHT22;8518;53.236;10.384;2022-10-16T00:25:44;13.60;99.90
16801;DHT22;8518;53.236;10.384;2022-10-16T00:28:09;13.60;99.90
16801;DHT22;8518;53.236;10.384;2022-10-16T00:30:38;13.50;99.90
16801;DHT22;8518;53.236;10.384;2022-10-16T00:33:04;13.50;99.90
16801;DHT22;8518;53.236;10.384;2022-10-16T00:35:31;13.50;99.90
16801;DHT22;8518;53.236;10.384;2022-10-16T00:37:56;13.50;99.90
16801;DHT22;8518;53.236;10.384;2022-10-16T00:40:22;13.40;99.90
16801;DHT22;8518;53.236;10.384;2022-10-16T00:42:47;13.40;99.90
16801;DHT22;8518;53.236;10.384;2022-10-16T00:45:13;13.30;99.90
16801;DHT22;8518;53.236;10.384;2022-10-16T00:47:42;13.30;99.90
16801;DHT22;8518;53.236;10.384;2022-10-16T00:52:46;13.20;99.90
16801;DHT22;8518;53.236;10.384;2022-10-16T00:55:13;13.20;99.90
16801;DHT22;8518;53.236;10.384;2022-10-16T00:57:39;13.20;99.90
16801;DHT22;8518;53.236;10.384;2022-10-16T01:00:08;13.20;99.90
16801;DHT22;8518;53.236;10.384;2022-10-16T01:02:34;13.10;99.90
16801;DHT22;8518;53.236;10.384;2022-10-16T01:05:00;13.10;99.90
16801;DHT22;8518;53.236;10.384;2022-10-16T01:15:42;13.10;99.90
16801;DHT22;8518;53.236;10.384;2022-10-16T01:21:06;13.10;99.90
16801;DHT22;8518;53.236;10.384;2022-10-16T01:26:20;13.00;99.90
16801;DHT22;8518;53.236;10.384;2022-10-16T01:28:59;13.00;99.90
16801;DHT22;8518;53.236;10.384;2022-10-16T01:31:27;13.00;99.90
16801;DHT22;8518;53.236;10.384;2022-10-16T01:34:15;13.00;99.90
16801;DHT22;8518;53.236;10.384;2022-10-16T01:36:56;13.00;99.90
16801;DHT22;8518;53.236;10.384;2022-10-16T01:39:26;13.00;99.90
16801;DHT22;8518;53.236;10.384;2022-10-16T01:41:58;13.00;99.90
16801;DHT22;8518;53.236;10.384;2022-10-16T01:44:29;13.00;99.90
16801;DHT22;8518;53.236;10.384;2022-10-16T01:46:56;13.00;99.90
16801;DHT22;8518;53.236;10.384;2022-10-16T01:49:25;12.90;99.90
16801;DHT22;8518;53.236;10.384;2022-10-16T01:51:55;12.90;99.90
16801;DHT22;8518;53.236;10.384;2022-10-16T01:54:23;12.80;99.90
16801;DHT22;8518;53.236;10.384;2022-10-16T01:56:51;12.70;99.90
16801;DHT22;8518;53.236;10.384;2022-10-16T01:59:20;12.70;99.90
16801;DHT22;8518;53.236;10.384;2022-10-16T02:01:52;12.60;99.90
16801;DHT22;8518;53.236;10.384;2022-10-16T02:04:33;12.60;99.90
16801;DHT22;8518;53.236;10.384;2022-10-16T02:06:59;12.60;99.90
16801;DHT22;8518;53.236;10.384;2022-10-16T02:09:25;12.60;99.90
16801;DHT22;8518;53.236;10.384;2022-10-16T02:11:54;12.60;99.90
16801;DHT22;8518;53.236;10.384;2022-10-16T02:14:21;12.60;99.90
16801;DHT22;8518;53.236;10.384;2022-10-16T02:16:49;12.60;99.90
16801;DHT22;8518;53.236;10.384;2022-10-16T02:19:17;12.60;99.90
16801;DHT22;8518;53.236;10.384;2022-10-16T02:21:56;12.60;99.90
16801;DHT22;8518;53.236;10.384;2022-10-16T02:29:45;12.70;99.90
16801;DHT22;8518;53.236;10.384;2022-10-16T02:32:15;12.70;99.90
16801;DHT22;8518;53.236;10.384;2022-10-16T02:34:42;12.60;99.90
16801;DHT22;8518;53.236;10.384;2022-10-16T02:37:09;12.60;99.90
16801;DHT22;8518;53.236;10.384;2022-10-16T02:39:36;12.70;99.90
16801;DHT22;8518;53.236;10.384;2022-10-16T02:42:02;12.70;99.90
16801;DHT22;8518;53.236;10.384;2022-10-16T02:44:28;12.70;99.90
16801;DHT22;8518;53.236;10.384;2022-10-16T02:46:54;12.70;99.90
16801;DHT22;8518;53.236;10.384;2022-10-16T02:49:20;12.70;99.90
16801;DHT22;8518;53.236;10.384;2022-10-16T02:51:45;12.70;99.90
16801;DHT22;8518;53.236;10.384;2022-10-16T02:54:11;12.70;99.90
16801;DHT22;8518;53.236;10.384;2022-10-16T02:56:38;12.70;99.90
16801;DHT22;8518;53.236;10.384;2022-10-16T02:59:04;12.70;99.90
16801;DHT22;8518;53.236;10.384;2022-10-16T03:01:29;12.70;99.90
16801;DHT22;8518;53.236;10.384;2022-10-16T03:03:55;12.70;99.90
16801;DHT22;8518;53.236;10.384;2022-10-16T03:06:21;12.70;99.90
16801;DHT22;8518;53.236;10.384;2022-10-16T03:08:46;12.70;99.90
16801;DHT22;8518;53.236;10.384;2022-10-16T03:11:12;12.60;99.90
16801;DHT22;8518;53.236;10.384;2022-10-16T03:13:38;12.60;99.90
16801;DHT22;8518;53.236;10.384;2022-10-16T03:16:03;12.60;99.90
16801;DHT22;8518;53.236;10.384;2022-10-16T03:18:29;12.60;99.90
16801;DHT22;8518;53.236;10.384;2022-10-16T03:20:55;12.60;99.90
16801;DHT22;8518;53.236;10.384;2022-10-16T03:23:20;12.60;99.90
16801;DHT22;8518;53.236;10.384;2022-10-16T03:25:46;12.60;99.90
16801;DHT22;8518;53.236;10.384;2022-10-16T03:28:11;12.50;99.90
16801;DHT22;8518;53.236;10.384;2022-10-16T03:30:37;12.50;99.90
16801;DHT22;8518;53.236;10.384;2022-10-16T03:33:05;12.50;99.90
16801;DHT22;8518;53.236;10.384;2022-10-16T03:35:31;12.50;99.90
16801;DHT22;8518;53.236;10.384;2022-10-16T03:37:57;12.50;99.90
16801;DHT22;8518;53.236;10.384;2022-10-16T03:40:23;12.50;99.90
16801;DHT22;8518;53.236;10.384;2022-10-16T03:42:48;12.50;99.90
16801;DHT22;8518;53.236;10.384;2022-10-16T03:45:14;12.50;99.90
16801;DHT22;8518;53.236;10.384;2022-10-16T03:47:40;12.40;99.90
16801;DHT22;8518;53.236;10.384;2022-10-16T03:50:06;12.40;99.90
16801;DHT22;8518;53.236;10.384;2022-10-16T03:52:32;12.40;99.90
16801;DHT22;8518;53.236;10.384;2022-10-16T03:54:58;12.40;99.90
16801;DHT22;8518;53.236;10.384;2022-10-16T03:57:24;12.40;99.90
16801;DHT22;8518;53.236;10.384;2022-10-16T03:59:49;12.40;99.90
16801;DHT22;8518;53.236;10.384;2022-10-16T04:02:16;12.40;99.90
16801;DHT22;8518;53.236;10.384;2022-10-16T04:04:41;12.50;99.90
16801;DHT22;8518;53.236;10.384;2022-10-16T04:07:07;12.40;99.90
16801;DHT22;8518;53.236;10.384;2022-10-16T04:09:33;12.40;99.90
16801;DHT22;8518;53.236;10.384;2022-10-16T04:11:58;12.40;99.90
16801;DHT22;8518;53.236;10.384;2022-10-16T04:14:24;12.40;99.90
16801;DHT22;8518;53.236;10.384;2022-10-16T04:16:49;12.30;99.90
16801;DHT22;8518;53.236;10.384;2022-10-16T04:19:15;12.40;99.90
16801;DHT22;8518;53.236;10.384;2022-10-16T04:21:40;12.40;99.90
16801;DHT22;8518;53.236;10.384;2022-10-16T04:24:06;12.40;99.90
16801;DHT22;8518;53.236;10.384;2022-10-16T04:26:32;12.40;99.90
16801;DHT22;8518;53.236;10.384;2022-10-16T04:28:57;12.40;99.90
16801;DHT22;8518;53.236;10.384;2022-10-16T04:31:23;12.40;99.90
16801;DHT22;8518;53.236;10.384;2022-10-16T04:33:48;12.40;99.90
16801;DHT22;8518;53.236;10.384;2022-10-16T04:36:14;12.40;99.90
16801;DHT22;8518;53.236;10.384;2022-10-16T04:38:40;12.40;99.90
16801;DHT22;8518;53.236;10.384;2022-10-16T04:41:06;12.40;99.90
16801;DHT22;8518;53.236;10.384;2022-10-16T04:43:32;12.40;99.90
16801;DHT22;8518;53.236;10.384;2022-10-16T04:45:58;12.40;99.90
16801;DHT22;8518;53.236;10.384;2022-10-16T04:48:24;12.40;99.90
16801;DHT22;8518;53.236;10.384;2022-10-16T04:50:50;12.50;99.90
16801;DHT22;8518;53.236;10.384;2022-10-16T04:53:15;12.50;99.90
16801;DHT22;8518;53.236;10.384;2022-10-16T04:55:41;12.50;99.90
16801;DHT22;8518;53.236;10.384;2022-10-16T04:58:07;12.50;99.90
16801;DHT22;8518;53.236;10.384;2022-10-16T05:00:34;12.50;99.90
16801;DHT22;8518;53.236;10.384;2022-10-16T05:02:59;12.50;99.90
16801;DHT22;8518;53.236;10.384;2022-10-16T05:05:26;12.50;99.90
16801;DHT22;8518;53.236;10.384;2022-10-16T05:07:52;12.50;99.90
16801;DHT22;8518;53.236;10.384;2022-10-16T05:10:18;12.50;99.90
16801;DHT22;8518;53.236;10.384;2022-10-16T05:12:44;12.40;99.90
16801;DHT22;8518;53.236;10.384;2022-10-16T05:15:10;12.40;99.90
16801;DHT22;8518;53.236;10.384;2022-10-16T05:17:35;12.50;99.90
16801;DHT22;8518;53.236;10.384;2022-10-16T05:20:01;12.50;99.90
16801;DHT22;8518;53.236;10.384;2022-10-16T05:22:27;12.40;99.90
16801;DHT22;8518;53.236;10.384;2022-10-16T05:24:52;12.40;99.90
16801;DHT22;8518;53.236;10.384;2022-10-16T05:27:18;12.40;99.90
16801;DHT22;8518;53.236;10.384;2022-10-16T05:29:47;12.40;99.90
16801;DHT22;8518;53.236;10.384;2022-10-16T05:32:17;12.30;99.90
16801;DHT22;8518;53.236;10.384;2022-10-16T05:34:44;12.40;99.90
16801;DHT22;8518;53.236;10.384;2022-10-16T05:37:09;12.40;99.90
16801;DHT22;8518;53.236;10.384;2022-10-16T05:39:35;12.40;99.90
16801;DHT22;8518;53.236;10.384;2022-10-16T05:42:02;12.40;99.90
16801;DHT22;8518;53.236;10.384;2022-10-16T05:44:28;12.40;99.90
16801;DHT22;8518;53.236;10.384;2022-10-16T05:46:53;12.40;99.90
16801;DHT22;8518;53.236;10.384;2022-10-16T05:49:19;12.40;99.90
16801;DHT22;8518;53.236;10.384;2022-10-16T05:51:44;12.30;99.90
16801;DHT22;8518;53.236;10.384;2022-10-16T05:54:10;12.30;99.90
16801;DHT22;8518;53.236;10.384;2022-10-16T05:56:36;12.30;99.90
16801;DHT22;8518;53.236;10.384;2022-10-16T05:59:03;12.30;99.90
16801;DHT22;8518;53.236;10.384;2022-10-16T06:01:29;12.30;99.90
16801;DHT22;8518;53.236;10.384;2022-10-16T06:03:56;12.30;99.90
16801;DHT22;8518;53.236;10.384;2022-10-16T06:06:24;12.40;99.90
16801;DHT22;8518;53.236;10.384;2022-10-16T06:08:52;12.40;99.90
16801;DHT22;8518;53.236;10.384;2022-10-16T06:11:20;12.40;99.90
16801;DHT22;8518;53.236;10.384;2022-10-16T06:13:54;12.40;99.90
16801;DHT22;8518;53.236;10.384;2022-10-16T06:16:22;12.40;99.90
16801;DHT22;8518;53.236;10.384;2022-10-16T06:18:47;12.50;99.90
16801;DHT22;8518;53.236;10.384;2022-10-16T06:21:18;12.40;99.90
16801;DHT22;8518;53.236;10.384;2022-10-16T06:23:45;12.50;99.90
16801;DHT22;8518;53.236;10.384;2022-10-16T06:26:16;12.40;99.90
16801;DHT22;8518;53.236;10.384;2022-10-16T06:28:43;12.50;99.90
16801;DHT22;8518;53.236;10.384;2022-10-16T06:31:10;12.50;99.90
16801;DHT22;8518;53.236;10.384;2022-10-16T06:33:36;12.50;99.90
16801;DHT22;8518;53.236;10.384;2022-10-16T06:36:05;12.50;99.90
16801;DHT22;8518;53.236;10.384;2022-10-16T06:38:31;12.50;99.90
16801;DHT22;8518;53.236;10.384;2022-10-16T06:40:57;12.50;99.90
16801;DHT22;8518;53.236;10.384;2022-10-16T06:43:23;12.50;99.90
16801;DHT22;8518;53.236;10.384;2022-10-16T06:45:56;12.50;99.90
16801;DHT22;8518;53.236;10.384;2022-10-16T06:48:22;12.50;99.90
16801;DHT22;8518;53.236;10.384;2022-10-16T06:51:18;12.50;99.90
16801;DHT22;8518;53.236;10.384;2022-10-16T06:53:46;12.60;99.90
16801;DHT22;8518;53.236;10.384;2022-10-16T06:56:23;12.60;99.90
16801;DHT22;8518;53.236;10.384;2022-10-16T06:58:49;12.70;99.90
16801;DHT22;8518;53.236;10.384;2022-10-16T07:01:17;12.60;99.90
16801;DHT22;8518;53.236;10.384;2022-10-16T07:03:44;12.70;99.90
16801;DHT22;8518;53.236;10.384;2022-10-16T07:06:13;12.70;99.90
16801;DHT22;8518;53.236;10.384;2022-10-16T07:08:41;12.70;99.90
16801;DHT22;8518;53.236;10.384;2022-10-16T07:11:09;12.70;99.90
16801;DHT22;8518;53.236;10.384;2022-10-16T07:13:41;12.70;99.90
16801;DHT22;8518;53.236;10.384;2022-10-16T07:16:15;12.80;99.90
16801;DHT22;8518;53.236;10.384;2022-10-16T07:18:42;12.90;99.90
16801;DHT22;8518;53.236;10.384;2022-10-16T07:21:15;13.70;99.90
16801;DHT22;8518;53.236;10.384;2022-10-16T07:23:41;14.30;99.90
16801;DHT22;8518;53.236;10.384;2022-10-16T07:26:07;15.00;99.90
16801;DHT22;8518;53.236;10.384;2022-10-16T07:28:33;15.80;99.90
16801;DHT22;8518;53.236;10.384;2022-10-16T07:31:03;16.40;99.90
16801;DHT22;8518;53.236;10.384;2022-10-16T07:33:30;16.40;99.90
16801;DHT22;8518;53.236;10.384;2022-10-16T07:35:56;16.60;99.90
16801;DHT22;8518;53.236;10.384;2022-10-16T07:38:22;16.80;99.90
16801;DHT22;8518;53.236;10.384;2022-10-16T07:40:47;16.70;99.90
16801;DHT22;8518;53.236;10.384;2022-10-16T07:43:13;16.60;99.90
16801;DHT22;8518;53.236;10.384;2022-10-16T07:45:49;16.80;99.90
16801;DHT22;8518;53.236;10.384;2022-10-16T07:48:16;17.30;99.90
16801;DHT22;8518;53.236;10.384;2022-10-16T07:50:43;18.60;99.90
16801;DHT22;8518;53.236;10.384;2022-10-16T07:53:09;19.80;99.90
16801;DHT22;8518;53.236;10.384;2022-10-16T07:55:35;20.80;99.90
16801;DHT22;8518;53.236;10.384;2022-10-16T07:58:00;21.30;99.90
16801;DHT22;8518;53.236;10.384;2022-10-16T08:00:26;21.30;99.90
16801;DHT22;8518;53.236;10.384;2022-10-16T08:02:51;22.00;99.90
16801;DHT22;8518;53.236;10.384;2022-10-16T08:05:17;22.60;99.90
16801;DHT22;8518;53.236;10.384;2022-10-16T08:07:42;22.80;99.90
16801;DHT22;8518;53.236;10.384;2022-10-16T08:10:16;23.20;99.90
16801;DHT22;8518;53.236;10.384;2022-10-16T08:12:42;23.50;99.90
16801;DHT22;8518;53.236;10.384;2022-10-16T08:15:08;23.40;99.90
16801;DHT22;8518;53.236;10.384;2022-10-16T08:17:34;23.50;99.90
16801;DHT22;8518;53.236;10.384;2022-10-16T08:20:00;22.80;99.90
16801;DHT22;8518;53.236;10.384;2022-10-16T08:22:26;22.50;99.90
16801;DHT22;8518;53.236;10.384;2022-10-16T08:24:51;21.50;99.90
16801;DHT22;8518;53.236;10.384;2022-10-16T08:27:17;20.30;99.90
16801;DHT22;8518;53.236;10.384;2022-10-16T08:29:42;19.00;99.90
16801;DHT22;8518;53.236;10.384;2022-10-16T08:32:08;17.80;99.90
16801;DHT22;8518;53.236;10.384;2022-10-16T08:34:33;17.90;99.90
16801;DHT22;8518;53.236;10.384;2022-10-16T08:36:59;18.10;99.90
16801;DHT22;8518;53.236;10.384;2022-10-16T08:39:25;19.20;99.90
16801;DHT22;8518;53.236;10.384;2022-10-16T08:42:15;20.60;99.90
16801;DHT22;8518;53.236;10.384;2022-10-16T08:50:18;21.80;99.90
16801;DHT22;8518;53.236;10.384;2022-10-16T08:52:47;21.50;99.90
16801;DHT22;8518;53.236;10.384;2022-10-16T08:55:37;21.70;99.90
16801;DHT22;8518;53.236;10.384;2022-10-16T08:58:14;22.00;99.90
16801;DHT22;8518;53.236;10.384;2022-10-16T09:00:42;21.70;99.90
16801;DHT22;8518;53.236;10.384;2022-10-16T09:06:21;22.30;99.90
16801;DHT22;8518;53.236;10.384;2022-10-16T09:17:52;23.10;99.90
16801;DHT22;8518;53.236;10.384;2022-10-16T09:20:32;24.50;99.90
16801;DHT22;8518;53.236;10.384;2022-10-16T09:25:44;24.90;99.90
16801;DHT22;8518;53.236;10.384;2022-10-16T09:28:10;24.60;99.90
16801;DHT22;8518;53.236;10.384;2022-10-16T09:30:37;24.10;99.90
16801;DHT22;8518;53.236;10.384;2022-10-16T09:33:04;25.00;99.90
16801;DHT22;8518;53.236;10.384;2022-10-16T09:35:44;25.10;99.90
16801;DHT22;8518;53.236;10.384;2022-10-16T09:38:28;24.90;99.90
16801;DHT22;8518;53.236;10.384;2022-10-16T09:40:59;24.30;99.90
16801;DHT22;8518;53.236;10.384;2022-10-16T09:43:36;24.20;99.90
16801;DHT22;8518;53.236;10.384;2022-10-16T09:46:07;24.00;99.90
16801;DHT22;8518;53.236;10.384;2022-10-16T09:48:39;24.80;99.90
16801;DHT22;8518;53.236;10.384;2022-10-16T09:51:25;25.10;99.90
16801;DHT22;8518;53.236;10.384;2022-10-16T09:53:56;25.10;99.90
16801;DHT22;8518;53.236;10.384;2022-10-16T09:56:25;24.80;99.90
16801;DHT22;8518;53.236;10.384;2022-10-16T09:58:53;25.30;99.50
16801;DHT22;8518;53.236;10.384;2022-10-16T10:01:21;25.30;99.00
16801;DHT22;8518;53.236;10.384;2022-10-16T10:03:48;24.90;98.40
16801;DHT22;8518;53.236;10.384;2022-10-16T10:06:22;24.90;99.00
16801;DHT22;8518;53.236;10.384;2022-10-16T10:09:06;26.10;97.40
16801;DHT22;8518;53.236;10.384;2022-10-16T10:19:40;26.20;94.70
16801;DHT22;8518;53.236;10.384;2022-10-16T10:36:14;25.30;93.10
16801;DHT22;8518;53.236;10.384;2022-10-16T10:38:49;25.00;94.70
16801;DHT22;8518;53.236;10.384;2022-10-16T10:44:07;25.10;93.90
16801;DHT22;8518;53.236;10.384;2022-10-16T10:46:38;25.20;92.80
16801;DHT22;8518;53.236;10.384;2022-10-16T10:49:27;25.50;93.30
16801;DHT22;8518;53.236;10.384;2022-10-16T11:00:03;25.80;91.60
16801;DHT22;8518;53.236;10.384;2022-10-16T11:02:40;25.00;92.20
16801;DHT22;8518;53.236;10.384;2022-10-16T11:05:33;23.90;94.40
16801;DHT22;8518;53.236;10.384;2022-10-16T11:08:15;23.90;94.70
16801;DHT22;8518;53.236;10.384;2022-10-16T11:10:58;24.60;93.90
16801;DHT22;8518;53.236;10.384;2022-10-16T11:16:20;26.10;91.60
16801;DHT22;8518;53.236;10.384;2022-10-16T11:18:50;26.20;91.10
16801;DHT22;8518;53.236;10.384;2022-10-16T11:21:19;26.50;90.40
16801;DHT22;8518;53.236;10.384;2022-10-16T11:24:00;25.40;91.40
16801;DHT22;8518;53.236;10.384;2022-10-16T11:26:30;24.20;93.50
16801;DHT22;8518;53.236;10.384;2022-10-16T11:28:58;23.60;95.00
16801;DHT22;8518;53.236;10.384;2022-10-16T11:34:02;24.90;93.70
16801;DHT22;8518;53.236;10.384;2022-10-16T11:36:39;24.80;92.80
16801;DHT22;8518;53.236;10.384;2022-10-16T11:39:24;25.10;92.50
16801;DHT22;8518;53.236;10.384;2022-10-16T11:42:27;25.30;92.60
16801;DHT22;8518;53.236;10.384;2022-10-16T11:45:33;24.60;93.10
16801;DHT22;8518;53.236;10.384;2022-10-16T11:48:23;24.70;93.50
16801;DHT22;8518;53.236;10.384;2022-10-16T11:50:57;24.10;94.40
16801;DHT22;8518;53.236;10.384;2022-10-16T11:53:46;24.10;94.80
16801;DHT22;8518;53.236;10.384;2022-10-16T11:56:17;23.70;95.40
16801;DHT22;8518;53.236;10.384;2022-10-16T11:59:02;24.20;94.50
16801;DHT22;8518;53.236;10.384;2022-10-16T12:01:40;24.00;95.00
16801;DHT22;8518;53.236;10.384;2022-10-16T12:07:14;24.50;93.90
16801;DHT22;8518;53.236;10.384;2022-10-16T12:09:40;23.70;95.20
16801;DHT22;8518;53.236;10.384;2022-10-16T12:15:03;23.70;95.70
16801;DHT22;8518;53.236;10.384;2022-10-16T12:17:43;22.90;97.20
16801;DHT22;8518;53.236;10.384;2022-10-16T12:22:42;23.50;97.00
16801;DHT22;8518;53.236;10.384;2022-10-16T12:25:28;24.30;95.70
16801;DHT22;8518;53.236;10.384;2022-10-16T12:27:59;24.70;94.70
16801;DHT22;8518;53.236;10.384;2022-10-16T12:30:28;24.50;94.20
16801;DHT22;8518;53.236;10.384;2022-10-16T12:33:00;23.40;96.00
16801;DHT22;8518;53.236;10.384;2022-10-16T12:35:29;23.30;97.10
16801;DHT22;8518;53.236;10.384;2022-10-16T12:38:06;24.30;96.40
16801;DHT22;8518;53.236;10.384;2022-10-16T12:40:34;24.30;95.10
16801;DHT22;8518;53.236;10.384;2022-10-16T12:43:13;23.40;96.10
16801;DHT22;8518;53.236;10.384;2022-10-16T12:45:38;22.50;98.50
16801;DHT22;8518;53.236;10.384;2022-10-16T12:48:19;21.40;99.90
16801;DHT22;8518;53.236;10.384;2022-10-16T12:50:45;21.10;99.90
16801;DHT22;8518;53.236;10.384;2022-10-16T12:53:25;21.70;99.90
16801;DHT22;8518;53.236;10.384;2022-10-16T12:58:44;24.00;98.20
16801;DHT22;8518;53.236;10.384;2022-10-16T13:01:52;24.60;96.10
16801;DHT22;8518;53.236;10.384;2022-10-16T13:07:25;26.90;92.20
16801;DHT22;8518;53.236;10.384;2022-10-16T13:15:25;28.80;79.20
16801;DHT22;8518;53.236;10.384;2022-10-16T13:17:59;27.30;83.00
16801;DHT22;8518;53.236;10.384;2022-10-16T13:23:26;26.30;83.70
16801;DHT22;8518;53.236;10.384;2022-10-16T13:28:46;26.70;83.70
16801;DHT22;8518;53.236;10.384;2022-10-16T13:31:17;26.00;86.70
16801;DHT22;8518;53.236;10.384;2022-10-16T13:33:47;26.00;84.20
16801;DHT22;8518;53.236;10.384;2022-10-16T13:36:25;25.50;86.20
16801;DHT22;8518;53.236;10.384;2022-10-16T13:39:14;24.60;89.30
16801;DHT22;8518;53.236;10.384;2022-10-16T13:41:42;24.40;90.60
16801;DHT22;8518;53.236;10.384;2022-10-16T13:44:20;24.20;90.90
16801;DHT22;8518;53.236;10.384;2022-10-16T13:46:57;23.60;90.90
16801;DHT22;8518;53.236;10.384;2022-10-16T13:49:23;23.70;91.30
16801;DHT22;8518;53.236;10.384;2022-10-16T13:51:56;24.60;90.40
16801;DHT22;8518;53.236;10.384;2022-10-16T13:54:23;25.60;86.20
16801;DHT22;8518;53.236;10.384;2022-10-16T13:56:49;25.50;83.60
16801;DHT22;8518;53.236;10.384;2022-10-16T13:59:27;24.40;85.80
16801;DHT22;8518;53.236;10.384;2022-10-16T14:01:58;23.20;90.30
16801;DHT22;8518;53.236;10.384;2022-10-16T14:04:32;22.60;92.20
16801;DHT22;8518;53.236;10.384;2022-10-16T14:06:58;22.50;92.60
16801;DHT22;8518;53.236;10.384;2022-10-16T14:09:31;22.60;92.90
16801;DHT22;8518;53.236;10.384;2022-10-16T14:12:03;22.40;93.00
16801;DHT22;8518;53.236;10.384;2022-10-16T14:14:41;22.40;93.70
16801;DHT22;8518;53.236;10.384;2022-10-16T14:17:18;22.20;94.50
16801;DHT22;8518;53.236;10.384;2022-10-16T14:19:49;22.10;95.00
16801;DHT22;8518;53.236;10.384;2022-10-16T14:22:40;21.80;95.80
16801;DHT22;8518;53.236;10.384;2022-10-16T14:25:23;21.40;96.20
16801;DHT22;8518;53.236;10.384;2022-10-16T14:27:59;21.10;97.20
16801;DHT22;8518;53.236;10.384;2022-10-16T14:30:26;20.80;97.90
16801;DHT22;8518;53.236;10.384;2022-10-16T14:33:03;20.50;99.10
16801;DHT22;8518;53.236;10.384;2022-10-16T14:35:34;20.20;99.90
16801;DHT22;8518;53.236;10.384;2022-10-16T14:38:02;20.30;99.90
16801;DHT22;8518;53.236;10.384;2022-10-16T14:40:31;20.30;99.90
16801;DHT22;8518;53.236;10.384;2022-10-16T14:42:57;20.20;99.90
16801;DHT22;8518;53.236;10.384;2022-10-16T14:45:30;20.10;99.90
16801;DHT22;8518;53.236;10.384;2022-10-16T14:48:05;20.10;99.90
16801;DHT22;8518;53.236;10.384;2022-10-16T14:50:39;20.00;99.90
16801;DHT22;8518;53.236;10.384;2022-10-16T14:53:11;20.00;99.90
16801;DHT22;8518;53.236;10.384;2022-10-16T14:55:38;20.00;99.90
16801;DHT22;8518;53.236;10.384;2022-10-16T14:58:04;20.00;99.90
16801;DHT22;8518;53.236;10.384;2022-10-16T15:00:29;19.90;99.90
16801;DHT22;8518;53.236;10.384;2022-10-16T15:02:55;19.80;99.90
16801;DHT22;8518;53.236;10.384;2022-10-16T15:05:23;19.60;99.90
16801;DHT22;8518;53.236;10.384;2022-10-16T15:07:51;19.50;99.90
16801;DHT22;8518;53.236;10.384;2022-10-16T15:10:17;19.60;99.90
16801;DHT22;8518;53.236;10.384;2022-10-16T15:12:44;19.50;99.90
16801;DHT22;8518;53.236;10.384;2022-10-16T15:17:54;19.30;99.90
16801;DHT22;8518;53.236;10.384;2022-10-16T15:20:31;19.10;99.90
16801;DHT22;8518;53.236;10.384;2022-10-16T15:23:00;19.00;99.90
16801;DHT22;8518;53.236;10.384;2022-10-16T15:25:38;18.80;99.90
16801;DHT22;8518;53.236;10.384;2022-10-16T15:28:07;18.70;99.90
16801;DHT22;8518;53.236;10.384;2022-10-16T15:30:33;18.70;99.90
16801;DHT22;8518;53.236;10.384;2022-10-16T15:32:59;18.70;99.90
16801;DHT22;8518;53.236;10.384;2022-10-16T15:35:26;18.70;99.90
16801;DHT22;8518;53.236;10.384;2022-10-16T15:37:52;18.60;99.90
16801;DHT22;8518;53.236;10.384;2022-10-16T15:40:19;18.60;99.90
16801;DHT22;8518;53.236;10.384;2022-10-16T15:42:45;18.50;99.90
16801;DHT22;8518;53.236;10.384;2022-10-16T15:45:12;18.40;99.90
16801;DHT22;8518;53.236;10.384;2022-10-16T15:47:38;18.20;99.90
16801;DHT22;8518;53.236;10.384;2022-10-16T15:50:04;18.20;99.90
16801;DHT22;8518;53.236;10.384;2022-10-16T15:52:30;18.10;99.90
16801;DHT22;8518;53.236;10.384;2022-10-16T15:54:57;18.10;99.90
16801;DHT22;8518;53.236;10.384;2022-10-16T15:57:23;18.00;99.90
16801;DHT22;8518;53.236;10.384;2022-10-16T15:59:49;17.80;99.90
16801;DHT22;8518;53.236;10.384;2022-10-16T16:02:15;17.70;99.90
16801;DHT22;8518;53.236;10.384;2022-10-16T16:04:41;17.60;99.90
16801;DHT22;8518;53.236;10.384;2022-10-16T16:07:06;17.50;99.90
16801;DHT22;8518;53.236;10.384;2022-10-16T16:09:35;17.40;99.90
16801;DHT22;8518;53.236;10.384;2022-10-16T16:12:01;17.30;99.90
16801;DHT22;8518;53.236;10.384;2022-10-16T16:14:27;17.10;99.90
16801;DHT22;8518;53.236;10.384;2022-10-16T16:16:54;17.10;99.90
16801;DHT22;8518;53.236;10.384;2022-10-16T16:19:20;17.00;99.90
16801;DHT22;8518;53.236;10.384;2022-10-16T16:21:49;16.90;99.90
16801;DHT22;8518;53.236;10.384;2022-10-16T16:24:16;16.80;99.90
16801;DHT22;8518;53.236;10.384;2022-10-16T16:26:41;16.60;99.90
16801;DHT22;8518;53.236;10.384;2022-10-16T16:29:13;16.50;99.90
16801;DHT22;8518;53.236;10.384;2022-10-16T16:31:39;16.40;99.90
16801;DHT22;8518;53.236;10.384;2022-10-16T16:34:05;16.40;99.90
16801;DHT22;8518;53.236;10.384;2022-10-16T16:36:32;16.20;99.90
16801;DHT22;8518;53.236;10.384;2022-10-16T16:38:58;16.20;99.90
16801;DHT22;8518;53.236;10.384;2022-10-16T16:41:26;16.10;99.90
16801;DHT22;8518;53.236;10.384;2022-10-16T16:43:53;16.00;99.90
16801;DHT22;8518;53.236;10.384;2022-10-16T16:46:20;15.90;99.90
16801;DHT22;8518;53.236;10.384;2022-10-16T16:48:46;15.80;99.90
16801;DHT22;8518;53.236;10.384;2022-10-16T16:51:16;15.80;99.90
16801;DHT22;8518;53.236;10.384;2022-10-16T16:53:46;15.70;99.90
16801;DHT22;8518;53.236;10.384;2022-10-16T16:56:12;15.60;99.90
16801;DHT22;8518;53.236;10.384;2022-10-16T16:58:38;15.50;99.90
16801;DHT22;8518;53.236;10.384;2022-10-16T17:01:04;15.50;99.90
16801;DHT22;8518;53.236;10.384;2022-10-16T17:03:33;15.40;99.90
16801;DHT22;8518;53.236;10.384;2022-10-16T17:06:03;15.40;99.90
16801;DHT22;8518;53.236;10.384;2022-10-16T17:08:29;15.30;99.90
16801;DHT22;8518;53.236;10.384;2022-10-16T17:10:56;15.20;99.90
16801;DHT22;8518;53.236;10.384;2022-10-16T17:13:27;15.10;99.90
16801;DHT22;8518;53.236;10.384;2022-10-16T17:15:53;15.00;99.90
16801;DHT22;8518;53.236;10.384;2022-10-16T17:18:20;15.00;99.90
16801;DHT22;8518;53.236;10.384;2022-10-16T17:20:46;14.90;99.90
16801;DHT22;8518;53.236;10.384;2022-10-16T17:23:12;14.80;99.90
16801;DHT22;8518;53.236;10.384;2022-10-16T17:25:38;14.80;99.90
16801;DHT22;8518;53.236;10.384;2022-10-16T17:28:04;14.70;99.90
16801;DHT22;8518;53.236;10.384;2022-10-16T17:30:31;14.70;99.90
16801;DHT22;8518;53.236;10.384;2022-10-16T17:32:58;14.60;99.90